Time;durP1;ratioP1;P1;durP2;ratioP2;P2;SDS_P1;SDS_P2;PMS_P1;PMS_P2;Temp;Humidity;BMP_temperature;BMP_pressure;BME280_temperature;BME280_humidity;BME280_pressure;Samples;Min_cycle;Max_cycle;Signal;HPM_P1;HPM_P2
2022/08/29 04:01:42;;;;;;;127.00;3.60;;;8.30;96.30;;;;;;5385818;23;20487;-81
2022/08/29 04:05:05;;;;;;;94.87;3.63;;;8.30;96.30;;;;;;4973754;28;20414;-78
2022/08/29 04:06:53;;;;;;;166.60;4.63;;;8.20;96.30;;;;;;4973573;28;20182;-78
2022/08/29 04:09:19;;;;;;;188.67;5.93;;;8.20;96.30;;;;;;4955938;28;20418;-77
2022/08/29 04:11:44;;;;;;;188.47;4.60;;;8.20;96.30;;;;;;4962954;28;20203;-76
2022/08/29 04:14:11;;;;;;;174.97;5.10;;;8.20;96.30;;;;;;4938817;28;20194;-78
2022/08/29 04:16:37;;;;;;;91.63;2.87;;;8.20;96.30;;;;;;4972791;28;20194;-77
2022/08/29 04:19:06;;;;;;;56.13;1.97;;;8.20;96.30;;;;;;4946941;28;20438;-77
2022/08/29 04:21:33;;;;;;;106.10;3.13;;;8.20;96.30;;;;;;4939646;29;20462;-77
2022/08/29 04:23:59;;;;;;;185.50;4.90;;;8.20;96.30;;;;;;4954538;29;20415;-78
2022/08/29 04:26:24;;;;;;;134.17;4.73;;;8.30;96.30;;;;;;4937284;29;20473;-78
2022/08/29 04:28:50;;;;;;;248.43;6.60;;;8.30;96.30;;;;;;4953976;29;20189;-77
2022/08/29 04:31:20;;;;;;;234.23;9.73;;;8.30;96.30;;;;;;4954249;29;20226;-78
2022/08/29 04:33:47;;;;;;;203.53;7.67;;;8.40;96.30;;;;;;4969302;28;20162;-77
2022/08/29 04:36:13;;;;;;;149.70;5.17;;;8.40;96.30;;;;;;4973692;28;21075;-77
2022/08/29 04:38:39;;;;;;;118.37;4.97;;;8.40;96.30;;;;;;4943263;28;20453;-77
2022/08/29 04:41:06;;;;;;;137.07;4.30;;;8.40;96.30;;;;;;4957081;28;20437;-77
2022/08/29 04:43:32;;;;;;;291.60;6.87;;;8.50;96.30;;;;;;4992770;28;20712;-77
2022/08/29 04:45:57;;;;;;;275.37;6.17;;;8.40;96.30;;;;;;4984389;28;20430;-79
2022/08/29 04:48:22;;;;;;;210.33;6.53;;;8.50;96.30;;;;;;4963745;28;20568;-77
2022/08/29 04:50:59;;;;;;;225.97;5.07;;;8.60;96.30;;;;;;4964324;28;20213;-77
2022/08/29 04:53:25;;;;;;;265.33;5.37;;;8.70;96.30;;;;;;4937378;29;20185;-76
2022/08/29 04:55:56;;;;;;;105.30;3.87;;;8.80;96.30;;;;;;4954289;29;20426;-76
2022/08/29 04:58:23;;;;;;;105.00;3.23;;;8.80;96.30;;;;;;4954491;29;20414;-77
2022/08/29 05:00:49;;;;;;;160.60;4.67;;;8.90;96.30;;;;;;4980089;28;20475;-78
2022/08/29 05:03:14;;;;;;;33.17;1.87;;;9.10;96.30;;;;;;4991483;28;20432;-77
2022/08/29 05:05:40;;;;;;;8.63;1.60;;;9.30;96.30;;;;;;4994874;28;20177;-80
2022/08/29 05:08:05;;;;;;;20.90;2.00;;;9.40;96.30;;;;;;4976892;28;20193;-77
2022/08/29 05:10:32;;;;;;;22.70;1.60;;;9.40;96.30;;;;;;4997972;28;20684;-78
2022/08/29 05:12:57;;;;;;;59.90;2.30;;;9.50;96.30;;;;;;4994676;28;20185;-79
2022/08/29 05:15:23;;;;;;;96.77;3.20;;;9.70;96.30;;;;;;4975937;28;20514;-78
2022/08/29 05:17:48;;;;;;;66.60;3.03;;;9.70;96.30;;;;;;4992327;28;20212;-78
2022/08/29 05:20:14;;;;;;;140.17;3.30;;;9.90;96.30;;;;;;4976864;28;20174;-78
2022/08/29 05:22:41;;;;;;;67.97;2.90;;;10.10;96.30;;;;;;4985029;28;20176;-78
2022/08/29 05:25:07;;;;;;;103.97;3.27;;;10.20;96.30;;;;;;4973431;28;20544;-78
2022/08/29 05:27:32;;;;;;;42.33;1.80;;;10.50;96.30;;;;;;4949146;28;20433;-78
2022/08/29 05:29:59;;;;;;;29.00;1.57;;;11.30;96.30;;;;;;4961549;28;20520;-78
2022/08/29 05:32:25;;;;;;;8.63;1.60;;;12.20;96.30;;;;;;4973487;28;20230;-78
2022/08/29 05:34:50;;;;;;;24.53;1.93;;;13.10;96.30;;;;;;4957412;29;20454;-78
2022/08/29 05:37:19;;;;;;;21.17;2.03;;;13.90;96.30;;;;;;4957156;29;20207;-78
2022/08/29 05:39:46;;;;;;;22.83;1.40;;;14.60;96.30;;;;;;4939290;29;20548;-78
2022/08/29 05:42:11;;;;;;;16.70;1.40;;;15.20;96.30;;;;;;4941640;28;20806;-79
2022/08/29 05:44:38;;;;;;;42.07;1.90;;;15.40;96.30;;;;;;4959151;28;20449;-78
2022/08/29 05:47:06;;;;;;;42.50;1.87;;;15.70;96.30;;;;;;4968254;28;20222;-78
2022/08/29 05:49:33;;;;;;;17.83;1.30;;;16.10;96.30;;;;;;4976020;28;20461;-78
2022/08/29 05:51:59;;;;;;;17.43;1.20;;;16.10;96.30;;;;;;4972360;28;20863;-78
2022/08/29 05:54:25;;;;;;;1.53;1.00;;;16.10;96.30;;;;;;4959003;28;20450;-78
2022/08/29 05:56:51;;;;;;;14.03;1.57;;;16.30;96.30;;;;;;4975452;28;20282;-78
2022/08/29 05:59:17;;;;;;;34.40;1.70;;;16.80;96.30;;;;;;4975416;28;20450;-78
2022/08/29 06:01:45;;;;;;;30.87;1.93;;;16.90;96.30;;;;;;4976072;28;20214;-78
2022/08/29 06:04:10;;;;;;;28.93;1.90;;;17.00;96.30;;;;;;4959063;28;20808;-78
2022/08/29 06:06:36;;;;;;;21.83;1.60;;;17.40;96.30;;;;;;4976155;28;20422;-78
2022/08/29 06:09:02;;;;;;;1.40;1.30;;;17.20;96.30;;;;;;4979235;28;20181;-78
2022/08/29 06:11:30;;;;;;;4.33;1.33;;;18.10;96.30;;;;;;4995370;28;20232;-78
2022/08/29 06:13:56;;;;;;;2.63;1.50;;;19.30;96.30;;;;;;4995449;28;20563;-78
2022/08/29 06:16:24;;;;;;;2.50;1.80;;;20.50;96.30;;;;;;4995405;28;20460;-78
2022/08/29 06:18:50;;;;;;;2.10;1.70;;;21.30;96.30;;;;;;4995053;28;20516;-78
2022/08/29 06:21:16;;;;;;;3.00;1.27;;;21.60;96.30;;;;;;4995866;28;20443;-78
2022/08/29 06:23:43;;;;;;;2.60;1.60;;;21.80;96.30;;;;;;4978310;28;20408;-78
2022/08/29 06:26:10;;;;;;;3.73;1.83;;;22.40;96.30;;;;;;4995708;28;20420;-78
2022/08/29 06:28:37;;;;;;;2.40;1.37;;;23.10;96.30;;;;;;4995695;28;20777;-78
2022/08/29 06:31:08;;;;;;;2.43;1.53;;;23.60;95.30;;;;;;4994717;28;20459;-78
2022/08/29 06:33:34;;;;;;;2.00;1.20;;;22.90;96.30;;;;;;4996678;28;20420;-78
2022/08/29 06:35:59;;;;;;;2.80;1.27;;;22.30;96.30;;;;;;4979561;28;20420;-78
2022/08/29 06:38:25;;;;;;;7.87;1.50;;;22.40;96.30;;;;;;4979886;28;20420;-78
2022/08/29 06:40:50;;;;;;;3.07;1.67;;;22.80;96.30;;;;;;4992532;28;20785;-78
2022/08/29 06:43:16;;;;;;;2.70;1.73;;;24.00;96.30;;;;;;4981358;28;20185;-78
2022/08/29 06:45:42;;;;;;;2.50;1.50;;;24.90;92.90;;;;;;4981248;28;20221;-78
2022/08/29 06:48:08;;;;;;;2.63;1.80;;;25.70;91.00;;;;;;4981367;28;20209;-78
2022/08/29 06:50:37;;;;;;;3.23;1.63;;;26.10;88.60;;;;;;4981364;28;20449;-78
2022/08/29 06:53:05;;;;;;;2.17;1.50;;;26.20;88.40;;;;;;4981069;28;20296;-79
2022/08/29 06:55:34;;;;;;;3.73;2.70;;;26.40;88.50;;;;;;4979479;28;20409;-77
2022/08/29 06:57:59;;;;;;;6.50;3.80;;;26.60;88.10;;;;;;4974789;28;20456;-77
2022/08/29 07:00:25;;;;;;;5.43;3.40;;;27.20;85.70;;;;;;4978998;28;20414;-78
2022/08/29 07:02:51;;;;;;;12.00;3.97;;;27.30;81.10;;;;;;4981662;28;20170;-79
2022/08/29 07:05:17;;;;;;;7.23;3.83;;;27.60;83.40;;;;;;4975838;28;20174;-77
2022/08/29 07:07:42;;;;;;;8.60;3.80;;;27.20;84.10;;;;;;4957664;28;20499;-79
2022/08/29 07:10:08;;;;;;;6.27;3.53;;;27.80;82.60;;;;;;4974908;28;20178;-77
2022/08/29 07:12:34;;;;;;;7.97;3.47;;;28.30;81.00;;;;;;4975330;28;20225;-76
2022/08/29 07:15:00;;;;;;;9.32;3.90;;;28.80;80.50;;;;;;4975369;28;20698;-78
2022/08/29 07:17:28;;;;;;;5.70;3.50;;;29.20;77.50;;;;;;4975382;28;20209;-77
2022/08/29 07:19:53;;;;;;;11.77;4.03;;;29.20;75.40;;;;;;4957141;28;20640;-79
2022/08/29 07:22:19;;;;;;;7.57;3.60;;;29.40;75.30;;;;;;4961524;28;20674;-76
2022/08/29 07:24:45;;;;;;;8.55;4.07;;;29.60;76.30;;;;;;4961013;28;20208;-76
2022/08/29 07:27:11;;;;;;;5.43;3.70;;;29.50;73.70;;;;;;4978165;28;20257;-76
2022/08/29 07:29:37;;;;;;;9.88;3.95;;;29.20;75.40;;;;;;4960161;28;20749;-76
2022/08/29 07:32:03;;;;;;;11.00;3.47;;;29.10;75.10;;;;;;4978188;28;20236;-76
2022/08/29 07:34:29;;;;;;;8.55;4.03;;;29.40;76.70;;;;;;4977552;28;20177;-76
2022/08/29 07:36:54;;;;;;;7.28;3.63;;;29.60;74.30;;;;;;4977501;28;20213;-76
2022/08/29 07:39:21;;;;;;;5.47;3.47;;;28.80;78.60;;;;;;4958813;28;20178;-76
2022/08/29 07:41:47;;;;;;;4.75;3.47;;;28.90;75.50;;;;;;4974628;28;20197;-76
2022/08/29 07:44:13;;;;;;;5.53;3.40;;;29.40;74.80;;;;;;4995784;28;20177;-75
2022/08/29 07:46:39;;;;;;;8.55;3.97;;;29.60;75.10;;;;;;4977054;28;20184;-74
2022/08/29 07:49:06;;;;;;;11.73;3.50;;;29.70;74.90;;;;;;4993399;28;20180;-75
2022/08/29 07:51:32;;;;;;;5.07;2.78;;;29.40;77.30;;;;;;4993654;28;20208;-75
2022/08/29 07:53:58;;;;;;;8.57;3.45;;;29.60;74.80;;;;;;4993583;28;20183;-74
2022/08/29 07:56:27;;;;;;;12.65;3.80;;;29.60;75.90;;;;;;4993505;28;20284;-75
2022/08/29 07:58:53;;;;;;;7.88;3.53;;;29.30;72.50;;;;;;4993256;28;20181;-75
2022/08/29 08:01:19;;;;;;;10.57;3.22;;;29.10;72.10;;;;;;4993249;28;20242;-74
2022/08/29 08:03:45;;;;;;;6.97;3.75;;;29.80;72.40;;;;;;4993113;28;20645;-74
2022/08/29 08:06:11;;;;;;;7.32;3.40;;;30.00;73.10;;;;;;4993316;28;20195;-75
2022/08/29 08:08:37;;;;;;;5.90;3.50;;;29.60;72.70;;;;;;4975323;28;20552;-74
2022/08/29 08:11:05;;;;;;;8.60;3.92;;;29.30;75.10;;;;;;4973668;28;20739;-75
2022/08/29 08:13:31;;;;;;;6.95;3.47;;;29.30;71.90;;;;;;4973782;28;20177;-76
2022/08/29 08:15:57;;;;;;;4.97;3.07;;;28.70;74.40;;;;;;4973626;28;20549;-75
2022/08/29 08:18:24;;;;;;;9.53;3.60;;;28.60;73.50;;;;;;4973275;28;20235;-76
2022/08/29 08:20:50;;;;;;;4.90;3.13;;;28.40;72.60;;;;;;4965083;28;20196;-74
2022/08/29 08:23:16;;;;;;;8.23;3.57;;;28.50;72.80;;;;;;4954257;29;20171;-75
2022/08/29 08:25:42;;;;;;;14.50;3.43;;;28.70;75.70;;;;;;4936971;28;20185;-75
2022/08/29 08:28:08;;;;;;;8.43;3.37;;;28.10;73.30;;;;;;4970573;28;20831;-75
2022/08/29 08:30:34;;;;;;;10.60;4.17;;;28.40;74.70;;;;;;4973433;28;20193;-74
2022/08/29 08:33:00;;;;;;;14.50;3.93;;;28.40;76.70;;;;;;4973414;28;20858;-74
2022/08/29 08:35:25;;;;;;;8.13;3.67;;;28.30;75.10;;;;;;4973627;28;20186;-74
2022/08/29 08:37:52;;;;;;;7.53;3.03;;;28.40;75.70;;;;;;4973164;28;20858;-74
2022/08/29 08:40:22;;;;;;;7.77;3.57;;;28.30;77.90;;;;;;4976309;28;20193;-74
2022/08/29 08:42:48;;;;;;;8.10;3.50;;;27.80;78.00;;;;;;4993012;28;20440;-74
2022/08/29 08:45:21;;;;;;;14.63;3.97;;;27.60;77.60;;;;;;4992769;28;20404;-74
2022/08/29 08:48:02;;;;;;;8.07;3.67;;;27.00;81.60;;;;;;4992625;28;20408;-74
2022/08/29 08:50:53;;;;;;;8.17;3.53;;;27.70;80.90;;;;;;4992593;28;20412;-74
2022/08/29 08:53:40;;;;;;;7.57;3.87;;;27.90;77.70;;;;;;4992710;28;20456;-74
2022/08/29 08:56:18;;;;;;;7.63;3.40;;;27.20;78.80;;;;;;4992271;28;20444;-74
2022/08/29 08:58:56;;;;;;;4.83;3.30;;;27.10;81.40;;;;;;4992275;28;20499;-73
2022/08/29 09:01:31;;;;;;;6.60;3.17;;;26.80;79.10;;;;;;4974997;28;20951;-74
2022/08/29 09:04:09;;;;;;;8.23;2.77;;;26.40;80.80;;;;;;4992530;28;20498;-74
2022/08/29 09:06:52;;;;;;;6.30;3.20;;;26.00;78.80;;;;;;4992475;28;20503;-75
2022/08/29 09:09:39;;;;;;;9.17;2.93;;;25.60;80.60;;;;;;4986377;28;20405;-74
2022/08/29 09:12:36;;;;;;;7.30;3.63;;;25.30;83.10;;;;;;4965202;28;20445;-73
2022/08/29 09:15:02;;;;;;;9.13;3.03;;;25.50;83.40;;;;;;4937397;29;20434;-74
2022/08/29 09:17:40;;;;;;;6.40;2.93;;;26.00;83.80;;;;;;4971380;28;20468;-74
2022/08/29 09:20:09;;;;;;;5.97;3.00;;;26.50;84.10;;;;;;4957529;28;20189;-74
2022/08/29 09:22:39;;;;;;;9.40;3.60;;;26.30;79.70;;;;;;4975424;28;20441;-74
2022/08/29 09:25:07;;;;;;;5.10;2.60;;;26.40;84.40;;;;;;4957911;28;20457;-74
2022/08/29 09:27:34;;;;;;;13.43;3.43;;;27.00;84.30;;;;;;4975337;28;20476;-74
2022/08/29 09:30:08;;;;;;;6.40;3.20;;;27.70;74.70;;;;;;4975403;28;20417;-76
2022/08/29 09:32:50;;;;;;;16.57;3.87;;;27.30;77.60;;;;;;4975331;28;20480;-76
2022/08/29 09:35:26;;;;;;;9.90;4.13;;;27.50;79.10;;;;;;4957719;28;20425;-76
2022/08/29 09:38:01;;;;;;;10.27;3.27;;;27.50;80.10;;;;;;4975100;28;20463;-75
2022/08/29 09:40:52;;;;;;;10.60;3.20;;;27.40;78.60;;;;;;4979317;28;20440;-76
2022/08/29 09:43:43;;;;;;;7.27;3.30;;;27.40;81.40;;;;;;4994095;28;20400;-76
2022/08/29 09:46:24;;;;;;;9.93;3.60;;;26.70;81.50;;;;;;4994987;28;20407;-76
2022/08/29 09:49:12;;;;;;;6.97;3.13;;;26.80;82.90;;;;;;4994122;28;20408;-77
2022/08/29 09:51:42;;;;;;;8.10;3.80;;;27.00;80.70;;;;;;4993998;28;20443;-76
2022/08/29 09:54:29;;;;;;;5.87;3.53;;;26.30;81.70;;;;;;4992067;28;20408;-75
2022/08/29 09:57:09;;;;;;;10.10;3.47;;;26.50;79.70;;;;;;4991983;28;20817;-75
2022/08/29 09:59:41;;;;;;;6.40;3.07;;;26.40;80.60;;;;;;4992827;28;20408;-75
2022/08/29 10:02:20;;;;;;;8.87;3.77;;;26.40;86.50;;;;;;4991902;28;20501;-75
2022/08/29 10:04:59;;;;;;;10.13;3.40;;;26.70;84.40;;;;;;4991913;28;20766;-75
2022/08/29 10:07:34;;;;;;;11.90;3.00;;;25.70;84.60;;;;;;4995383;28;20412;-75
2022/08/29 10:10:13;;;;;;;13.37;3.73;;;26.40;84.00;;;;;;4983658;28;20425;-75
2022/08/29 10:13:14;;;;;;;7.73;3.43;;;26.80;85.30;;;;;;4976291;28;21018;-75
2022/08/29 10:16:05;;;;;;;8.20;3.90;;;26.40;82.20;;;;;;4962757;28;20445;-77
2022/08/29 10:18:51;;;;;;;5.37;3.40;;;26.40;82.80;;;;;;4956045;29;20422;-75
2022/08/29 10:21:20;;;;;;;6.37;3.37;;;26.00;84.90;;;;;;4956895;29;20426;-76
2022/08/29 10:24:02;;;;;;;9.50;3.47;;;25.70;86.30;;;;;;4991427;28;20439;-74
2022/08/29 10:26:55;;;;;;;13.30;3.70;;;25.90;88.00;;;;;;4966425;28;20433;-77
2022/08/29 10:29:35;;;;;;;7.13;3.27;;;25.70;88.10;;;;;;4965413;28;20493;-75
2022/08/29 10:32:27;;;;;;;10.33;3.60;;;25.50;87.90;;;;;;4968586;28;20460;-75
2022/08/29 10:35:11;;;;;;;9.40;3.50;;;25.80;90.00;;;;;;4960131;28;20466;-75
2022/08/29 10:38:02;;;;;;;8.37;3.43;;;26.20;86.40;;;;;;4956069;29;20466;-75
2022/08/29 10:40:49;;;;;;;8.53;3.40;;;26.20;89.30;;;;;;4947730;28;20416;-75
2022/08/29 10:43:41;;;;;;;5.73;3.53;;;26.40;83.80;;;;;;4994866;28;20416;-74
2022/08/29 10:46:18;;;;;;;8.23;3.70;;;26.40;82.00;;;;;;4994780;28;20483;-75
2022/08/29 10:49:05;;;;;;;9.30;3.77;;;26.00;83.30;;;;;;4994537;28;20436;-75
2022/08/29 10:51:42;;;;;;;9.00;3.27;;;25.70;87.10;;;;;;4994732;28;20503;-76
2022/08/29 10:54:36;;;;;;;7.50;3.50;;;25.30;84.70;;;;;;4994749;28;20499;-75
2022/08/29 10:57:06;;;;;;;10.20;3.53;;;24.90;87.60;;;;;;4994764;28;20436;-75
2022/08/29 10:59:37;;;;;;;10.70;3.93;;;24.00;85.40;;;;;;4994267;28;20411;-75
2022/08/29 11:02:13;;;;;;;9.40;4.00;;;24.60;88.30;;;;;;4994151;28;20467;-74
2022/08/29 11:04:53;;;;;;;8.90;3.87;;;24.70;88.80;;;;;;4994453;28;20400;-77
2022/08/29 11:07:27;;;;;;;8.87;3.63;;;24.90;95.00;;;;;;4989266;28;20433;-75
2022/08/29 11:10:09;;;;;;;9.83;3.77;;;25.00;89.40;;;;;;4984479;28;20491;-74
2022/08/29 11:12:46;;;;;;;10.43;3.73;;;25.30;87.10;;;;;;4993975;28;20429;-74
2022/08/29 11:15:34;;;;;;;6.40;3.60;;;24.90;86.30;;;;;;4994330;28;20422;-76
2022/08/29 11:18:22;;;;;;;12.50;3.83;;;24.60;87.50;;;;;;4993297;28;20444;-76
2022/08/29 11:20:55;;;;;;;8.63;3.30;;;23.70;87.20;;;;;;4986451;28;20990;-75
2022/08/29 11:23:40;;;;;;;10.07;3.20;;;24.10;95.00;;;;;;4955134;29;20403;-75
2022/08/29 11:26:21;;;;;;;7.17;3.10;;;24.80;92.00;;;;;;4967112;28;20425;-75
2022/08/29 11:29:12;;;;;;;7.40;3.30;;;25.10;91.90;;;;;;4974061;28;20401;-75
2022/08/29 11:32:03;;;;;;;6.80;2.93;;;25.40;91.40;;;;;;4974702;28;20912;-77
2022/08/29 11:34:45;;;;;;;13.77;3.17;;;25.10;83.20;;;;;;4974618;28;20441;-76
2022/08/29 11:37:44;;;;;;;9.30;4.13;;;24.40;85.80;;;;;;4974494;28;20515;-75
2022/08/29 11:40:50;;;;;;;7.40;3.03;;;24.60;89.20;;;;;;4976241;28;20441;-75
2022/08/29 11:43:21;;;;;;;6.33;3.50;;;25.20;86.90;;;;;;4993880;28;20446;-75
2022/08/29 11:46:00;;;;;;;11.13;3.43;;;25.70;89.10;;;;;;4993730;28;20746;-75
2022/08/29 11:48:30;;;;;;;6.60;3.53;;;25.30;84.80;;;;;;4993571;28;20408;-75
2022/08/29 11:50:56;;;;;;;9.03;3.03;;;25.20;86.70;;;;;;4976512;28;20765;-74
2022/08/29 11:53:32;;;;;;;7.90;3.33;;;25.10;90.70;;;;;;4993805;28;20828;-75
2022/08/29 11:56:13;;;;;;;10.37;3.20;;;25.40;87.10;;;;;;4993557;28;20491;-74
2022/08/29 11:58:39;;;;;;;11.43;3.40;;;25.50;87.00;;;;;;4993494;28;20459;-76
2022/08/29 12:01:08;;;;;;;9.20;3.57;;;25.30;86.40;;;;;;4976215;28;20983;-76
2022/08/29 12:03:33;;;;;;;6.60;3.23;;;25.30;92.30;;;;;;4993510;28;20685;-74
2022/08/29 12:06:17;;;;;;;8.27;3.10;;;25.50;89.20;;;;;;4976125;28;20589;-74
2022/08/29 12:09:07;;;;;;;8.43;3.47;;;24.90;84.60;;;;;;4993365;28;20170;-77
2022/08/29 12:11:57;;;;;;;4.67;2.67;;;24.80;85.30;;;;;;4992915;28;20433;-74
2022/08/29 12:14:50;;;;;;;8.53;2.83;;;24.60;87.90;;;;;;4993185;28;20440;-74
2022/08/29 12:17:16;;;;;;;8.63;3.57;;;24.40;89.50;;;;;;4993099;28;20862;-75
2022/08/29 12:20:00;;;;;;;7.60;3.33;;;24.20;87.80;;;;;;4961207;28;20525;-75
2022/08/29 12:22:52;;;;;;;7.50;2.73;;;24.10;90.50;;;;;;4954406;29;20274;-74
2022/08/29 12:25:27;;;;;;;7.23;3.20;;;24.30;92.00;;;;;;4936957;29;20429;-74
2022/08/29 12:28:02;;;;;;;13.40;3.50;;;24.80;91.10;;;;;;4954106;29;20962;-77
2022/08/29 12:30:34;;;;;;;7.67;2.80;;;25.20;88.20;;;;;;4953337;28;20406;-74
2022/08/29 12:33:37;;;;;;;8.23;2.83;;;25.20;86.20;;;;;;4954303;29;20407;-74
2022/08/29 12:36:24;;;;;;;12.70;3.50;;;25.10;86.90;;;;;;4954173;29;20484;-75
2022/08/29 12:39:21;;;;;;;10.80;3.30;;;25.30;88.30;;;;;;4953991;29;20489;-74
2022/08/29 12:42:18;;;;;;;5.40;3.20;;;25.30;85.20;;;;;;4976371;28;20441;-74
2022/08/29 12:44:58;;;;;;;8.83;2.90;;;24.30;84.80;;;;;;4962483;28;20430;-74
2022/08/29 12:47:32;;;;;;;4.70;2.40;;;24.60;84.30;;;;;;4961838;28;20437;-73
2022/08/29 12:50:05;;;;;;;7.67;3.70;;;24.20;87.40;;;;;;4961460;28;20433;-74
2022/08/29 12:52:36;;;;;;;6.60;3.10;;;24.30;87.30;;;;;;4959013;28;20450;-74
2022/08/29 12:55:25;;;;;;;5.20;3.00;;;24.70;88.30;;;;;;4964141;28;20427;-74
2022/08/29 12:57:52;;;;;;;7.63;3.13;;;24.80;87.30;;;;;;4959987;28;20468;-77
2022/08/29 13:00:22;;;;;;;4.90;3.03;;;24.80;85.50;;;;;;4981477;28;20422;-75
2022/08/29 13:03:20;;;;;;;11.70;3.17;;;25.10;88.60;;;;;;4974672;28;20504;-76
2022/08/29 13:05:47;;;;;;;4.90;3.50;;;25.40;88.70;;;;;;4916709;28;20532;-77
2022/08/29 13:08:27;;;;;;;7.57;3.00;;;25.40;88.20;;;;;;4973176;28;20942;-74
2022/08/29 13:11:05;;;;;;;12.60;3.70;;;25.40;89.80;;;;;;4972642;28;20428;-74
2022/08/29 13:13:32;;;;;;;4.90;2.77;;;24.90;85.50;;;;;;4953319;28;20442;-74
2022/08/29 13:16:00;;;;;;;6.37;2.73;;;24.40;86.70;;;;;;4967444;28;21138;-74
2022/08/29 13:18:27;;;;;;;8.37;3.20;;;24.20;88.80;;;;;;4971983;28;20418;-74
2022/08/29 13:21:20;;;;;;;7.90;2.80;;;24.50;89.20;;;;;;4957424;28;20443;-74
2022/08/29 13:24:18;;;;;;;8.33;3.30;;;24.40;90.60;;;;;;4970141;28;20436;-77
2022/08/29 13:27:18;;;;;;;6.30;2.93;;;24.30;86.40;;;;;;4955029;28;20427;-77
2022/08/29 13:29:44;;;;;;;12.63;2.87;;;24.10;90.40;;;;;;4991856;28;20793;-74
2022/08/29 13:32:22;;;;;;;10.87;3.40;;;24.00;90.30;;;;;;4978842;28;20442;-74
2022/08/29 13:35:05;;;;;;;6.87;3.17;;;23.50;87.80;;;;;;4972535;28;20619;-74
2022/08/29 13:37:35;;;;;;;5.30;3.07;;;23.00;87.30;;;;;;4973039;28;20465;-75
2022/08/29 13:40:35;;;;;;;11.03;3.17;;;23.30;91.90;;;;;;4987866;28;20424;-77
2022/08/29 13:43:01;;;;;;;9.03;3.50;;;23.50;90.70;;;;;;4995723;28;20405;-76
2022/08/29 13:45:27;;;;;;;7.80;3.30;;;23.70;88.40;;;;;;4995627;28;20746;-74
2022/08/29 13:48:01;;;;;;;7.43;2.80;;;23.50;88.40;;;;;;4995466;28;20408;-77
2022/08/29 13:50:27;;;;;;;11.57;2.90;;;24.00;92.90;;;;;;4995719;28;20197;-74
2022/08/29 13:52:56;;;;;;;16.63;2.83;;;24.30;86.80;;;;;;4995603;28;20838;-74
2022/08/29 13:55:22;;;;;;;6.80;2.60;;;24.30;91.10;;;;;;4995417;28;20427;-75
2022/08/29 13:57:50;;;;;;;12.20;3.20;;;24.50;89.20;;;;;;4986058;28;20487;-79
2022/08/29 14:00:17;;;;;;;5.17;3.00;;;24.50;88.00;;;;;;4975453;28;20409;-74
2022/08/29 14:02:42;;;;;;;6.93;2.60;;;24.50;86.80;;;;;;4975912;28;20402;-74
2022/08/29 14:05:08;;;;;;;8.60;2.50;;;24.50;87.20;;;;;;4975919;28;20413;-74
2022/08/29 14:07:36;;;;;;;8.90;2.97;;;24.50;85.70;;;;;;4976772;28;20650;-74
2022/08/29 14:10:04;;;;;;;7.30;2.93;;;24.50;84.60;;;;;;4994993;28;20398;-77
2022/08/29 14:12:29;;;;;;;7.70;2.40;;;24.50;87.50;;;;;;4979806;28;20453;-74
2022/08/29 14:14:55;;;;;;;4.40;2.70;;;24.00;88.70;;;;;;4984769;28;20420;-73
2022/08/29 14:17:22;;;;;;;4.97;2.60;;;23.90;86.90;;;;;;4976641;28;20199;-74
2022/08/29 14:19:48;;;;;;;7.67;2.80;;;24.00;88.40;;;;;;4968791;28;20529;-75
2022/08/29 14:22:17;;;;;;;6.40;3.40;;;24.00;87.30;;;;;;4947848;28;20534;-75
2022/08/29 14:24:50;;;;;;;15.53;2.83;;;23.70;88.70;;;;;;4985603;28;20232;-75
2022/08/29 14:27:15;;;;;;;7.37;3.07;;;23.30;87.90;;;;;;4967500;28;20422;-75
2022/08/29 14:29:41;;;;;;;7.27;3.10;;;23.20;86.40;;;;;;4968952;28;20501;-76
2022/08/29 14:32:06;;;;;;;23.07;3.00;;;23.50;88.90;;;;;;4959600;28;20704;-77
2022/08/29 14:34:32;;;;;;;9.30;2.70;;;23.50;88.60;;;;;;4950398;28;20190;-75
2022/08/29 14:36:57;;;;;;;16.63;3.07;;;23.40;88.60;;;;;;4975171;28;20289;-76
2022/08/29 14:39:23;;;;;;;7.93;2.73;;;23.40;88.90;;;;;;4980187;28;20693;-76
2022/08/29 14:41:48;;;;;;;8.97;3.30;;;23.40;88.60;;;;;;4981838;28;20198;-76
2022/08/29 14:44:14;;;;;;;4.33;2.97;;;23.20;86.80;;;;;;4987992;28;20174;-76
2022/08/29 14:46:39;;;;;;;8.60;3.13;;;23.00;87.80;;;;;;4988294;28;20212;-76
2022/08/29 14:49:05;;;;;;;5.57;2.53;;;22.60;89.30;;;;;;4990588;28;20197;-76
2022/08/29 14:51:30;;;;;;;9.80;3.00;;;22.40;91.40;;;;;;4981314;28;20194;-74
2022/08/29 14:53:56;;;;;;;10.50;3.40;;;22.20;89.80;;;;;;4968125;28;20182;-75
2022/08/29 14:56:24;;;;;;;8.10;2.77;;;22.30;89.50;;;;;;4966593;28;20260;-75
2022/08/29 14:58:50;;;;;;;3.87;2.60;;;22.80;91.40;;;;;;4980199;28;20655;-76
2022/08/29 15:01:16;;;;;;;8.23;2.27;;;23.20;87.20;;;;;;4994286;28;20536;-76
2022/08/29 15:03:42;;;;;;;7.07;2.53;;;23.20;87.30;;;;;;4977989;28;20460;-76
2022/08/29 15:06:07;;;;;;;7.63;2.30;;;23.00;85.70;;;;;;4988680;28;20690;-76
2022/08/29 15:08:33;;;;;;;15.43;3.37;;;23.00;90.20;;;;;;4983648;28;20263;-76
2022/08/29 15:10:58;;;;;;;10.10;3.50;;;22.70;88.50;;;;;;4987069;28;20209;-76
2022/08/29 15:13:24;;;;;;;7.13;2.57;;;22.40;88.10;;;;;;4960951;28;20248;-76
2022/08/29 15:15:49;;;;;;;5.37;2.50;;;22.20;88.90;;;;;;4990642;28;20210;-76
2022/08/29 15:18:17;;;;;;;5.20;2.30;;;22.10;91.90;;;;;;4980910;28;20216;-76
2022/08/29 15:20:43;;;;;;;6.03;2.27;;;21.90;91.50;;;;;;4982035;28;20190;-75
2022/08/29 15:23:08;;;;;;;5.13;2.50;;;21.60;91.20;;;;;;4961347;28;20426;-77
2022/08/29 15:25:34;;;;;;;5.50;2.47;;;21.50;91.90;;;;;;4945419;28;20185;-77
2022/08/29 15:27:59;;;;;;;10.67;2.63;;;21.40;91.80;;;;;;4972766;28;20190;-77
2022/08/29 15:30:25;;;;;;;9.90;2.83;;;21.40;92.50;;;;;;4954031;28;20289;-77
2022/08/29 15:32:51;;;;;;;6.47;2.47;;;21.30;92.80;;;;;;4982151;28;20204;-77
2022/08/29 15:35:17;;;;;;;5.53;2.80;;;21.40;91.70;;;;;;4973451;28;20496;-77
2022/08/29 15:37:43;;;;;;;10.70;2.73;;;21.60;91.70;;;;;;4955755;28;20541;-76
2022/08/29 15:40:10;;;;;;;5.00;2.33;;;21.70;90.30;;;;;;4959947;28;20187;-76
2022/08/29 15:42:37;;;;;;;12.30;2.50;;;22.10;94.70;;;;;;4983905;28;20195;-77
2022/08/29 15:45:05;;;;;;;7.30;2.70;;;22.50;88.70;;;;;;4973766;28;20430;-77
2022/08/29 15:47:34;;;;;;;5.37;3.30;;;23.00;89.40;;;;;;4958205;28;20973;-77
2022/08/29 15:50:00;;;;;;;6.90;3.07;;;23.10;88.30;;;;;;4954062;29;20410;-77
2022/08/29 15:52:26;;;;;;;8.87;2.73;;;22.90;88.30;;;;;;4954644;28;20439;-77
2022/08/29 15:54:52;;;;;;;7.00;2.80;;;23.10;88.40;;;;;;4954606;29;20423;-76
2022/08/29 15:57:19;;;;;;;15.33;3.10;;;23.10;87.70;;;;;;4954599;29;20443;-75
2022/08/29 15:59:44;;;;;;;7.37;2.83;;;22.90;87.50;;;;;;4954139;29;20415;-76
2022/08/29 16:02:10;;;;;;;5.50;2.40;;;22.80;88.10;;;;;;4954616;29;20812;-78
2022/08/29 16:04:38;;;;;;;7.90;2.30;;;22.80;86.30;;;;;;4962375;28;20213;-75
2022/08/29 16:07:04;;;;;;;5.37;2.40;;;22.60;86.80;;;;;;4973744;28;20205;-75
2022/08/29 16:09:30;;;;;;;5.03;2.73;;;22.60;87.50;;;;;;4980555;28;20928;-75
2022/08/29 16:11:55;;;;;;;11.10;3.47;;;22.40;87.50;;;;;;4993091;28;20428;-75
2022/08/29 16:14:21;;;;;;;9.83;2.27;;;22.20;88.30;;;;;;4981374;28;20198;-78
2022/08/29 16:16:48;;;;;;;7.27;2.70;;;22.10;89.30;;;;;;4973207;28;20190;-77
2022/08/29 16:19:14;;;;;;;4.80;2.43;;;22.00;87.70;;;;;;4973056;28;20587;-77
2022/08/29 16:21:40;;;;;;;7.33;2.50;;;21.90;89.60;;;;;;4973467;28;20934;-77
2022/08/29 16:24:06;;;;;;;6.10;2.70;;;21.90;90.10;;;;;;4985102;28;20419;-78
2022/08/29 16:26:35;;;;;;;8.77;2.90;;;21.80;89.00;;;;;;4992787;28;20197;-76
2022/08/29 16:29:02;;;;;;;6.73;3.37;;;21.70;90.20;;;;;;4978260;28;20429;-77
2022/08/29 16:31:28;;;;;;;4.30;2.60;;;21.50;88.90;;;;;;4977353;28;20437;-76
2022/08/29 16:33:53;;;;;;;5.90;2.53;;;21.50;90.60;;;;;;4992857;28;20408;-77
2022/08/29 16:36:19;;;;;;;9.60;2.70;;;21.50;90.90;;;;;;4974486;28;20189;-76
2022/08/29 16:38:44;;;;;;;10.37;2.57;;;21.30;90.90;;;;;;4985023;28;20174;-76
2022/08/29 16:41:13;;;;;;;8.40;2.40;;;21.10;92.10;;;;;;4975580;28;20309;-75
2022/08/29 16:43:40;;;;;;;9.03;2.33;;;20.90;90.40;;;;;;4971823;28;20570;-75
2022/08/29 16:46:07;;;;;;;7.67;3.13;;;20.80;95.50;;;;;;4972797;28;20418;-76
2022/08/29 16:48:34;;;;;;;5.70;2.67;;;20.80;96.30;;;;;;4966379;28;20839;-76
2022/08/29 16:50:59;;;;;;;9.50;3.10;;;20.80;96.30;;;;;;4973269;28;20455;-76
2022/08/29 16:53:25;;;;;;;4.40;2.50;;;20.80;96.30;;;;;;4973230;28;20432;-76
2022/08/29 16:55:50;;;;;;;6.73;3.40;;;20.60;96.30;;;;;;4968321;28;20643;-77
2022/08/29 17:01:00;;;;;;;3.50;2.70;;;19.80;96.30;;;;;;4962487;28;20260;-76
2022/08/29 17:03:25;;;;;;;3.10;2.47;;;19.60;96.30;;;;;;4960080;28;20430;-76
2022/08/29 17:05:51;;;;;;;10.87;2.70;;;19.40;96.30;;;;;;4956426;28;20226;-76
2022/08/29 17:17:58;;;;;;;5.93;2.83;;;18.50;96.30;;;;;;4969930;28;20721;-77